createdAt,value
2023-04-09T00:01:22.310Z,2.50
2023-04-09T00:03:51.278Z,2.40
2023-04-09T00:06:21.139Z,2.15
2023-04-09T00:08:50.601Z,2.10
2023-04-09T00:11:19.839Z,2.20
2023-04-09T00:13:49.392Z,2.17
2023-04-09T00:16:18.538Z,1.92
2023-04-09T00:18:49.658Z,2.08
2023-04-09T00:21:18.732Z,2.00
2023-04-09T00:23:47.224Z,2.00
2023-04-09T00:26:17.192Z,2.30
2023-04-09T00:28:47.285Z,2.30
2023-04-09T00:31:27.126Z,2.05
2023-04-09T00:34:04.582Z,2.08
2023-04-09T00:36:33.067Z,2.20
2023-04-09T00:39:03.336Z,2.28
2023-04-09T00:41:33.315Z,2.17
2023-04-09T00:44:02.696Z,2.10
2023-04-09T00:46:33.419Z,2.28
2023-04-09T00:49:03.458Z,2.20
2023-04-09T00:51:34.140Z,2.30
2023-04-09T00:54:04.881Z,2.28
2023-04-09T00:56:34.402Z,2.33
2023-04-09T00:59:09.770Z,2.55
2023-04-09T01:01:43.614Z,2.70
2023-04-09T01:04:13.954Z,2.40
2023-04-09T01:07:03.282Z,2.40
2023-04-09T01:10:01.021Z,2.47
2023-04-09T01:12:34.630Z,2.28
2023-04-09T01:15:10.767Z,2.40
2023-04-09T01:17:54.257Z,2.40
2023-04-09T01:20:41.218Z,2.17
2023-04-09T01:23:33.100Z,2.20
2023-04-09T01:26:24.067Z,2.10
2023-04-09T01:29:01.856Z,2.20
2023-04-09T01:31:43.842Z,2.22
2023-04-09T01:34:14.494Z,2.20
2023-04-09T01:36:46.342Z,2.08
2023-04-09T01:39:15.222Z,2.40
2023-04-09T01:41:44.940Z,2.30
2023-04-09T01:44:14.501Z,2.45
2023-04-09T01:46:44.751Z,2.30
2023-04-09T01:49:14.219Z,2.40
2023-04-09T01:51:44.833Z,2.13
2023-04-09T01:54:14.258Z,2.22
2023-04-09T01:56:48.996Z,2.30
2023-04-09T01:59:18.380Z,2.28
2023-04-09T02:01:50.795Z,2.40
2023-04-09T02:04:37.163Z,2.50
2023-04-09T02:07:24.340Z,2.10
2023-04-09T02:09:55.217Z,2.10
2023-04-09T02:12:26.409Z,2.20
2023-04-09T02:14:55.894Z,2.22
2023-04-09T02:17:25.065Z,2.28
2023-04-09T02:19:54.109Z,2.30
2023-04-09T02:22:23.534Z,2.33
2023-04-09T02:24:53.397Z,2.15
2023-04-09T02:27:22.816Z,2.20
2023-04-09T02:29:51.612Z,2.13
2023-04-09T02:32:21.917Z,2.30
2023-04-09T02:34:51.454Z,2.08
2023-04-09T02:37:20.913Z,2.13
2023-04-09T02:39:49.953Z,2.30
2023-04-09T02:42:19.336Z,2.28
2023-04-09T02:44:49.281Z,2.00
2023-04-09T02:47:19.080Z,2.20
2023-04-09T02:49:48.755Z,2.15
2023-04-09T02:52:17.273Z,2.22
2023-04-09T02:54:46.480Z,2.40
2023-04-09T02:57:14.935Z,2.70
2023-04-09T02:59:43.970Z,2.50
2023-04-09T03:02:14.927Z,2.50
2023-04-09T03:04:46.956Z,2.50
2023-04-09T03:07:19.571Z,2.58
2023-04-09T03:09:52.075Z,2.42
2023-04-09T03:12:24.122Z,2.65
2023-04-09T03:14:55.295Z,2.40
2023-04-09T03:17:27.742Z,2.53
2023-04-09T03:20:07.689Z,2.47
2023-04-09T03:22:43.999Z,2.63
2023-04-09T03:25:27.612Z,2.58
2023-04-09T03:28:09.636Z,2.80
2023-04-09T03:30:44.689Z,2.40
2023-04-09T03:33:19.413Z,2.97
2023-04-09T03:36:06.013Z,2.28
2023-04-09T03:38:47.758Z,2.65
2023-04-09T03:41:34.010Z,2.70
2023-04-09T03:44:11.035Z,2.60
2023-04-09T03:46:57.362Z,2.35
2023-04-09T03:49:35.006Z,2.50
2023-04-09T03:52:13.623Z,2.60
2023-04-09T03:54:48.616Z,2.53
2023-04-09T03:57:24.021Z,2.50
2023-04-09T04:00:07.637Z,2.55
2023-04-09T04:03:06.289Z,2.47
2023-04-09T04:06:09.951Z,2.30
2023-04-09T04:08:52.460Z,2.35
2023-04-09T04:11:34.831Z,2.40
2023-04-09T04:14:05.517Z,2.25
2023-04-09T04:16:42.428Z,2.80
2023-04-09T04:19:17.029Z,2.30
2023-04-09T04:21:53.986Z,2.60
2023-04-09T04:24:26.300Z,2.30
2023-04-09T04:26:55.438Z,2.58
2023-04-09T04:29:35.373Z,2.53
2023-04-09T04:32:07.496Z,2.50
2023-04-09T04:34:42.091Z,2.28
2023-04-09T04:37:23.488Z,2.45
2023-04-09T04:40:07.014Z,2.50
2023-04-09T04:42:42.030Z,2.47
2023-04-09T04:45:15.450Z,2.40
2023-04-09T04:47:54.513Z,2.42
2023-04-09T04:50:24.492Z,2.63
2023-04-09T04:53:06.708Z,2.60
2023-04-09T04:55:44.683Z,2.60
2023-04-09T05:00:57.650Z,2.38
2023-04-09T05:03:33.469Z,2.50
2023-04-09T05:06:21.917Z,2.35
2023-04-09T05:08:53.831Z,2.60
2023-04-09T05:11:23.591Z,2.47
2023-04-09T05:13:53.514Z,2.40
2023-04-09T05:16:25.577Z,2.33
2023-04-09T05:19:05.726Z,2.58
2023-04-09T05:21:35.331Z,2.72
2023-04-09T05:24:07.703Z,2.75
2023-04-09T05:26:39.041Z,2.60
2023-04-09T05:29:09.726Z,2.80
2023-04-09T05:31:42.612Z,2.70
2023-04-09T05:34:23.505Z,2.95
2023-04-09T05:36:55.404Z,2.65
2023-04-09T05:39:26.040Z,2.67
2023-04-09T05:41:55.154Z,3.10
2023-04-09T05:44:31.102Z,2.72
2023-04-09T05:47:13.960Z,2.60
2023-04-09T05:50:07.587Z,2.67
2023-04-09T05:52:38.920Z,2.72
2023-04-09T05:55:10.804Z,2.90
2023-04-09T05:57:46.716Z,2.80
2023-04-09T06:00:17.407Z,2.70
2023-04-09T06:02:47.139Z,2.55
2023-04-09T06:05:18.938Z,2.60
2023-04-09T06:07:50.620Z,2.60
2023-04-09T06:10:20.024Z,2.55
2023-04-09T06:12:53.568Z,2.60
2023-04-09T06:15:23.569Z,2.50
2023-04-09T06:17:54.119Z,3.00
2023-04-09T06:20:23.559Z,2.67
2023-04-09T06:22:55.113Z,2.42
2023-04-09T06:25:25.959Z,2.72
2023-04-09T06:27:55.636Z,2.70
2023-04-09T06:30:26.481Z,2.78
2023-04-09T06:32:55.835Z,2.60
2023-04-09T06:35:34.252Z,2.92
2023-04-09T06:38:03.658Z,2.72
2023-04-09T06:40:36.103Z,2.88
2023-04-09T06:43:09.166Z,3.00
2023-04-09T06:45:51.491Z,2.72
2023-04-09T06:48:24.096Z,2.38
2023-04-09T06:50:55.206Z,2.88
2023-04-09T06:53:25.996Z,2.83
2023-04-09T06:55:58.084Z,2.47
2023-04-09T06:58:35.077Z,2.80
2023-04-09T07:01:07.495Z,2.85
2023-04-09T07:03:38.947Z,2.83
2023-04-09T07:06:11.755Z,2.70
2023-04-09T07:08:43.140Z,2.90
2023-04-09T07:11:13.884Z,2.70
2023-04-09T07:13:44.915Z,2.78
2023-04-09T07:16:14.196Z,2.97
2023-04-09T07:18:46.306Z,2.47
2023-04-09T07:21:18.472Z,2.90
2023-04-09T07:23:49.992Z,2.85
2023-04-09T07:26:19.532Z,3.00
2023-04-09T07:28:50.677Z,2.90
2023-04-09T07:31:19.713Z,2.85
2023-04-09T07:33:50.005Z,2.75
2023-04-09T07:36:19.905Z,2.92
2023-04-09T07:38:51.774Z,2.85
2023-04-09T07:41:23.809Z,2.72
2023-04-09T07:43:53.988Z,2.83
2023-04-09T07:46:23.547Z,2.78
2023-04-09T07:48:55.245Z,2.90
2023-04-09T07:51:31.370Z,2.97
2023-04-09T07:54:03.446Z,2.83
2023-04-09T07:56:34.813Z,2.85
2023-04-09T07:59:04.085Z,2.63
2023-04-09T08:01:35.282Z,2.55
2023-04-09T08:04:07.536Z,3.00
2023-04-09T08:06:39.394Z,2.70
2023-04-09T08:09:11.686Z,2.72
2023-04-09T08:11:46.842Z,2.85
2023-04-09T08:14:20.204Z,2.83
2023-04-09T08:16:52.167Z,2.70
2023-04-09T08:19:27.625Z,2.60
2023-04-09T08:22:02.726Z,2.88
2023-04-09T08:24:42.653Z,2.50
2023-04-09T08:27:17.574Z,2.70
2023-04-09T08:30:01.358Z,2.60
2023-04-09T08:32:37.580Z,3.17
2023-04-09T08:35:22.273Z,2.67
2023-04-09T08:37:52.354Z,2.88
2023-04-09T08:40:39.330Z,2.60
2023-04-09T08:43:29.951Z,2.70
2023-04-09T08:46:21.514Z,2.45
2023-04-09T08:49:03.236Z,2.80
2023-04-09T08:51:49.322Z,2.88
2023-04-09T08:57:13.625Z,2.47
2023-04-09T08:59:45.553Z,2.53
2023-04-09T09:02:16.590Z,2.70
2023-04-09T09:04:49.702Z,2.40
2023-04-09T09:07:19.893Z,2.85
2023-04-09T09:10:01.760Z,2.75
2023-04-09T09:12:44.161Z,2.83
2023-04-09T09:15:35.760Z,2.50
2023-04-09T09:18:07.905Z,2.55
2023-04-09T09:20:39.246Z,2.70
2023-04-09T09:23:11.329Z,2.80
2023-04-09T09:25:44.221Z,2.75
2023-04-09T09:28:15.046Z,2.45
2023-04-09T09:30:49.206Z,2.67
2023-04-09T09:33:19.241Z,2.80
2023-04-09T09:36:02.229Z,2.75
2023-04-09T09:38:33.465Z,2.80
2023-04-09T09:41:20.195Z,2.63
2023-04-09T09:43:51.380Z,2.80
2023-04-09T09:46:23.492Z,2.88
2023-04-09T09:48:54.374Z,2.65
2023-04-09T09:51:33.185Z,2.70
2023-04-09T09:54:05.447Z,2.90
2023-04-09T09:56:43.377Z,2.83
2023-04-09T09:59:27.694Z,2.78
2023-04-09T10:02:08.124Z,3.03
2023-04-09T10:04:41.172Z,2.30
2023-04-09T10:07:17.863Z,2.63
2023-04-09T10:09:58.157Z,2.85
2023-04-09T10:12:32.498Z,2.80
2023-04-09T10:15:07.334Z,2.75
2023-04-09T10:17:39.096Z,2.90
2023-04-09T10:20:27.749Z,2.70
2023-04-09T10:23:09.740Z,2.75
2023-04-09T10:25:42.211Z,2.97
2023-04-09T10:28:19.729Z,2.50
2023-04-09T10:30:52.249Z,2.50
2023-04-09T10:33:31.689Z,3.13
2023-04-09T10:36:07.403Z,3.05
2023-04-09T10:38:44.865Z,2.72
2023-04-09T10:41:33.535Z,3.05
2023-04-09T10:44:07.643Z,2.65
2023-04-09T10:46:38.681Z,3.00
2023-04-09T10:49:19.613Z,2.83
2023-04-09T10:52:05.616Z,2.88
2023-04-09T10:54:35.232Z,2.90
2023-04-09T10:57:09.603Z,3.00
2023-04-09T11:00:04.677Z,3.05
2023-04-09T11:03:06.114Z,2.85
2023-04-09T11:05:42.812Z,2.90
2023-04-09T11:08:14.809Z,2.60
2023-04-09T11:10:52.197Z,2.97
2023-04-09T11:13:23.537Z,2.60
2023-04-09T11:16:00.277Z,3.00
2023-04-09T11:18:35.062Z,2.70
2023-04-09T11:21:07.200Z,2.80
2023-04-09T11:23:38.214Z,2.80
2023-04-09T11:26:11.652Z,2.90
2023-04-09T11:28:45.685Z,2.63
2023-04-09T11:31:17.474Z,2.83
2023-04-09T11:33:48.277Z,2.78
2023-04-09T11:36:19.768Z,2.78
2023-04-09T11:38:52.141Z,3.03
2023-04-09T11:41:43.945Z,3.17
2023-04-09T11:44:15.372Z,2.58
2023-04-09T11:46:50.983Z,2.65
2023-04-09T11:49:22.091Z,2.70
2023-04-09T11:51:51.909Z,2.55
2023-04-09T11:54:22.074Z,2.60
2023-04-09T11:56:59.145Z,2.75
2023-04-09T11:59:35.321Z,2.65
2023-04-09T12:02:09.762Z,2.70
2023-04-09T12:04:39.969Z,2.65
2023-04-09T12:07:12.334Z,2.42
2023-04-09T12:09:51.700Z,2.58
2023-04-09T12:12:26.017Z,2.40
2023-04-09T12:15:02.319Z,2.50
2023-04-09T12:17:36.105Z,2.30
2023-04-09T12:20:10.938Z,2.53
2023-04-09T12:22:43.947Z,2.45
2023-04-09T12:25:15.512Z,2.50
2023-04-09T12:27:46.382Z,2.58
2023-04-09T12:30:21.764Z,2.50
2023-04-09T12:32:51.481Z,2.47
2023-04-09T12:35:25.136Z,2.75
2023-04-09T12:37:56.269Z,2.75
2023-04-09T12:40:33.582Z,3.08
2023-04-09T12:43:03.501Z,2.83
2023-04-09T12:45:38.479Z,2.83
2023-04-09T12:48:09.516Z,3.10
2023-04-09T12:50:39.495Z,2.95
2023-04-09T12:53:13.933Z,3.33
2023-04-09T12:55:49.848Z,3.28
2023-04-09T12:58:20.068Z,3.05
2023-04-09T13:00:51.771Z,3.20
2023-04-09T13:03:23.061Z,3.17
2023-04-09T13:05:54.455Z,3.40
2023-04-09T13:08:25.883Z,3.17
2023-04-09T13:11:02.035Z,3.33
2023-04-09T13:13:38.578Z,3.30
2023-04-09T13:17:19.868Z,3.42
2023-04-09T13:19:52.766Z,3.13
2023-04-09T13:22:24.156Z,3.10
2023-04-09T13:25:27.557Z,3.10
2023-04-09T13:28:11.602Z,3.40
2023-04-09T13:30:44.424Z,3.47
2023-04-09T13:33:14.075Z,2.88
2023-04-09T13:35:45.900Z,3.35
2023-04-09T13:38:15.518Z,3.00
2023-04-09T13:40:47.688Z,3.10
2023-04-09T13:43:23.112Z,2.97
2023-04-09T13:45:52.086Z,3.42
2023-04-09T13:48:23.100Z,2.83
2023-04-09T13:50:52.585Z,2.80
2023-04-09T13:53:25.284Z,3.15
2023-04-09T13:55:55.452Z,2.65
2023-04-09T13:58:26.451Z,2.63
2023-04-09T14:01:03.284Z,2.65
2023-04-09T14:03:42.372Z,2.60
2023-04-09T14:06:11.718Z,2.65
2023-04-09T14:08:50.489Z,2.50
2023-04-09T14:11:20.136Z,2.55
2023-04-09T14:13:51.174Z,2.80
2023-04-09T14:16:21.663Z,2.67
2023-04-09T14:18:52.645Z,2.72
2023-04-09T14:21:22.670Z,2.97
2023-04-09T14:23:52.291Z,2.60
2023-04-09T14:26:24.121Z,2.55
2023-04-09T14:28:55.730Z,2.47
2023-04-09T14:31:32.158Z,2.60
2023-04-09T14:34:02.934Z,2.70
2023-04-09T14:36:33.637Z,2.67
2023-04-09T14:39:03.000Z,2.50
2023-04-09T14:41:36.104Z,2.95
2023-04-09T14:44:08.024Z,2.53
2023-04-09T14:46:39.632Z,2.60
2023-04-09T14:49:11.684Z,2.50
2023-04-09T14:51:43.396Z,2.40
2023-04-09T14:54:13.787Z,2.45
2023-04-09T14:56:44.417Z,2.72
2023-04-09T14:59:16.099Z,2.60
2023-04-09T15:01:47.540Z,2.58
2023-04-09T15:04:18.608Z,2.80
2023-04-09T15:06:49.004Z,2.40
2023-04-09T15:09:19.811Z,2.67
2023-04-09T15:11:50.028Z,2.70
2023-04-09T15:14:21.643Z,2.60
2023-04-09T15:16:52.174Z,2.80
2023-04-09T15:19:23.861Z,2.40
2023-04-09T15:21:54.848Z,2.30
2023-04-09T15:24:23.768Z,2.47
2023-04-09T15:26:55.112Z,2.45
2023-04-09T15:29:25.878Z,2.50
2023-04-09T15:31:55.401Z,2.60
2023-04-09T15:34:27.981Z,2.45
2023-04-09T15:37:02.253Z,2.60
2023-04-09T15:39:33.542Z,2.35
2023-04-09T15:42:03.466Z,2.35
2023-04-09T15:44:34.571Z,2.17
2023-04-09T15:47:05.328Z,2.40
2023-04-09T15:52:08.449Z,2.00
2023-04-09T15:54:39.872Z,2.50
2023-04-09T15:57:11.114Z,2.22
2023-04-09T15:59:45.356Z,2.25
2023-04-09T16:02:18.498Z,2.50
2023-04-09T16:04:48.276Z,2.42
2023-04-09T16:07:20.550Z,2.30
2023-04-09T16:09:51.525Z,2.20
2023-04-09T16:12:21.661Z,2.50
2023-04-09T16:14:51.261Z,2.20
2023-04-09T16:17:23.050Z,2.45
2023-04-09T16:19:52.523Z,2.55
2023-04-09T16:22:23.177Z,2.20
2023-04-09T16:24:53.871Z,2.47
2023-04-09T16:27:24.294Z,2.28
2023-04-09T16:29:55.367Z,2.40
2023-04-09T16:32:28.055Z,2.15
2023-04-09T16:35:05.726Z,2.30
2023-04-09T16:37:35.868Z,2.40
2023-04-09T16:40:10.168Z,2.35
2023-04-09T16:42:40.442Z,2.40
2023-04-09T16:45:12.131Z,2.30
2023-04-09T16:47:43.996Z,2.40
2023-04-09T16:50:14.488Z,2.50
2023-04-09T16:52:46.023Z,2.67
2023-04-09T16:55:15.792Z,2.30
2023-04-09T16:57:47.395Z,2.42
2023-04-09T17:00:27.417Z,2.35
2023-04-09T17:03:06.392Z,2.58
2023-04-09T17:05:38.099Z,2.45
2023-04-09T17:08:09.129Z,2.30
2023-04-09T17:10:39.555Z,2.35
2023-04-09T17:13:14.732Z,2.40
2023-04-09T17:15:46.758Z,2.63
2023-04-09T17:18:16.860Z,2.60
2023-04-09T17:20:48.576Z,2.28
2023-04-09T17:23:19.716Z,2.50
2023-04-09T17:25:50.464Z,2.17
2023-04-09T17:28:20.780Z,2.60
2023-04-09T17:30:50.985Z,2.47
2023-04-09T17:33:22.596Z,2.33
2023-04-09T17:35:54.098Z,2.30
2023-04-09T17:38:27.184Z,2.75
2023-04-09T17:40:59.151Z,2.53
2023-04-09T17:43:33.800Z,2.58
2023-04-09T17:46:05.974Z,2.55
2023-04-09T17:48:38.112Z,2.30
2023-04-09T17:51:07.786Z,2.47
2023-04-09T17:53:38.909Z,2.40
2023-04-09T17:56:09.919Z,2.40
2023-04-09T17:58:38.450Z,2.70
2023-04-09T18:01:14.032Z,2.50
2023-04-09T18:03:49.814Z,2.60
2023-04-09T18:06:19.447Z,2.25
2023-04-09T18:08:50.320Z,2.50
2023-04-09T18:11:19.890Z,2.70
2023-04-09T18:13:51.967Z,2.50
2023-04-09T18:16:23.772Z,2.50
2023-04-09T18:18:54.072Z,2.58
2023-04-09T18:21:23.869Z,2.50
2023-04-09T18:23:53.995Z,2.53
2023-04-09T18:26:23.660Z,2.45
2023-04-09T18:28:55.632Z,2.40
2023-04-09T18:31:32.550Z,2.80
2023-04-09T18:34:04.140Z,2.40
2023-04-09T18:36:36.070Z,2.50
2023-04-09T18:39:07.807Z,2.30
2023-04-09T18:41:38.254Z,2.38
2023-04-09T18:44:09.827Z,2.78
2023-04-09T18:46:40.108Z,2.22
2023-04-09T18:49:11.861Z,2.40
2023-04-09T18:51:43.992Z,2.42
2023-04-09T18:54:16.141Z,2.45
2023-04-09T18:56:47.770Z,2.30
2023-04-09T18:59:18.241Z,2.25
2023-04-09T19:01:47.863Z,2.45
2023-04-09T19:04:18.753Z,2.38
2023-04-09T19:06:51.679Z,2.45
2023-04-09T19:09:21.823Z,2.30
2023-04-09T19:11:51.733Z,2.30
2023-04-09T19:14:22.199Z,2.50
2023-04-09T19:16:52.023Z,2.60
2023-04-09T19:19:24.485Z,2.40
2023-04-09T19:21:55.547Z,2.40
2023-04-09T19:24:27.776Z,2.40
2023-04-09T19:27:11.854Z,2.38
2023-04-09T19:30:04.729Z,2.47
2023-04-09T19:36:11.229Z,2.42
2023-04-09T19:39:21.690Z,2.47
2023-04-09T19:41:51.904Z,2.50
2023-04-09T19:44:23.175Z,2.50
2023-04-09T19:46:52.238Z,2.20
2023-04-09T19:49:29.362Z,2.20
2023-04-09T19:52:34.022Z,2.30
2023-04-09T19:55:07.530Z,2.50
2023-04-09T19:57:46.159Z,2.38
2023-04-09T20:00:18.869Z,2.25
2023-04-09T20:02:53.725Z,2.25
2023-04-09T20:05:23.791Z,2.10
2023-04-09T20:08:05.872Z,2.67
2023-04-09T20:10:40.477Z,2.50
2023-04-09T20:13:18.954Z,2.38
2023-04-09T20:15:51.523Z,2.50
2023-04-09T20:18:23.091Z,2.40
2023-04-09T20:20:54.850Z,2.40
2023-04-09T20:23:25.554Z,2.45
2023-04-09T20:26:00.390Z,2.50
2023-04-09T20:28:36.433Z,2.65
2023-04-09T20:31:11.924Z,2.38
2023-04-09T20:33:44.857Z,2.20
2023-04-09T20:36:20.244Z,2.38
2023-04-09T20:38:55.579Z,2.22
2023-04-09T20:41:35.729Z,2.30
2023-04-09T20:44:10.809Z,2.22
2023-04-09T20:46:44.551Z,2.17
2023-04-09T20:49:16.810Z,2.35
2023-04-09T20:51:49.897Z,2.35
2023-04-09T20:54:39.681Z,2.50
2023-04-09T20:57:13.911Z,2.25
2023-04-09T20:59:43.526Z,2.50
2023-04-09T21:02:16.455Z,2.33
2023-04-09T21:04:46.581Z,2.50
2023-04-09T21:07:15.516Z,2.33
2023-04-09T21:09:44.027Z,2.30
2023-04-09T21:12:13.907Z,2.70
2023-04-09T21:14:45.610Z,2.50
2023-04-09T21:17:14.888Z,2.58
2023-04-09T21:19:44.049Z,2.35
2023-04-09T21:22:14.025Z,2.40
2023-04-09T21:24:43.761Z,2.80
2023-04-09T21:27:14.910Z,2.25
2023-04-09T21:29:43.854Z,2.50
2023-04-09T21:32:13.206Z,2.45
2023-04-09T21:34:42.522Z,2.55
2023-04-09T21:37:11.654Z,2.50
2023-04-09T21:39:43.614Z,2.33
2023-04-09T21:42:13.582Z,2.45
2023-04-09T21:44:45.579Z,2.17
2023-04-09T21:47:15.513Z,2.30
2023-04-09T21:49:46.041Z,2.70
2023-04-09T21:52:15.274Z,2.80
2023-04-09T21:54:45.466Z,2.40
2023-04-09T21:57:14.904Z,2.50
2023-04-09T21:59:46.164Z,2.75
2023-04-09T22:02:16.003Z,2.75
2023-04-09T22:04:47.030Z,2.70
2023-04-09T22:07:15.908Z,2.70
2023-04-09T22:09:45.667Z,2.80
2023-04-09T22:12:14.885Z,3.00
2023-04-09T22:14:43.744Z,2.60
2023-04-09T22:17:13.869Z,3.00
2023-04-09T22:19:43.631Z,2.50
2023-04-09T22:22:16.043Z,2.60
2023-04-09T22:24:46.825Z,2.42
2023-04-09T22:27:17.121Z,2.50
2023-04-09T22:29:47.462Z,2.50
2023-04-09T22:32:18.511Z,2.50
2023-04-09T22:34:47.880Z,2.63
2023-04-09T22:37:19.570Z,2.65
2023-04-09T22:39:47.835Z,2.88
2023-04-09T22:42:17.991Z,2.83
2023-04-09T22:44:47.405Z,2.75
2023-04-09T22:47:16.508Z,3.03
2023-04-09T22:49:46.021Z,2.97
2023-04-09T22:52:15.354Z,2.72
2023-04-09T22:54:44.153Z,3.00
2023-04-09T22:57:14.160Z,3.03
2023-04-09T22:59:44.343Z,3.22
2023-04-09T23:02:13.954Z,2.83
2023-04-09T23:04:43.702Z,2.90
2023-04-09T23:07:13.556Z,2.92
2023-04-09T23:09:43.443Z,2.65
2023-04-09T23:12:11.705Z,2.92
2023-04-09T23:14:42.752Z,2.63
2023-04-09T23:17:11.681Z,2.70
2023-04-09T23:19:42.192Z,2.45
2023-04-09T23:22:11.246Z,2.60
2023-04-09T23:24:40.192Z,2.55
2023-04-09T23:27:10.031Z,2.80
2023-04-09T23:29:40.400Z,2.50
2023-04-09T23:32:10.252Z,2.70
2023-04-09T23:34:41.942Z,2.60
2023-04-09T23:37:11.346Z,2.50
2023-04-09T23:39:41.808Z,2.33
2023-04-09T23:42:11.314Z,2.58
2023-04-09T23:44:42.970Z,2.33
2023-04-09T23:47:12.434Z,2.35
2023-04-09T23:49:44.023Z,2.28
2023-04-09T23:52:13.548Z,2.20
2023-04-09T23:54:51.921Z,2.30
2023-04-09T23:57:23.516Z,2.30
2023-04-09T23:59:52.270Z,2.40
